Glentana, MT

2:11 AM MDT on July 31, 2014 (GMT -0600)
Wokal-Glasgow International (KGGW) Elev 2293 ft | 48.21 °N, 106.62 °W | Change Station

Current weather conditions updated 18 minutes ago

Clear
Clear
66 °F
Feels Like 66 °F
N
10
Wind Variable Wind from ESE

Today is forecast to be Cooler than yesterday.

Today
High -- | Low -- °F
--% Chance of Precip.
Yesterday
High -- | Low -- °F
Precip. -- in
5:37 AM 8:44 PM
Waxing Crescent, 17% visible
Pressure 29.99 in
Visibility 10.0 miles
Clouds Clear
Dew Point 49 °F
Humidity 54%
Rainfall 0.00 in
Snow Depth Not available.
UV 0 out of 12
Pollen 7.20 out of 12
Air Quality Not available.
Flu Activity Not available.
METAR KGGW 310753Z AUTO 11009KT 10SM CLR 19/09 A3003 RMK AO2 SLP156 T01890094

More Conditions Fewer Conditions

Pressure 29.99 in
Visibility 10.0 miles
Clouds Clear
Dew Point 49 °F
Humidity 54%
Rainfall 0.00 in
Snow Depth Not available.
UV 0 out of 12
Pollen 7.20 out of 12
Air Quality Not available.
Flu Activity Not available.
METAR KGGW 310753Z AUTO 11009KT 10SM CLR 19/09 A3003 RMK AO2 SLP156 T01890094

More Conditions Fewer Conditions

10-Day Weather Forecast

Almanac

Astronomy

Jul. 31, 2014 Rise Set
Actual Time 5:37 AM MDT 8:44 PM MDT
Civil Twilight 4:59 AM MDT 9:22 PM MDT
Nautical Twilight 4:10 AM MDT 10:10 PM MDT
Astronomical Twilight 3:08 AM MDT 11:11 PM MDT
Moon 10:34 AM MDT 10:29 PM MDT
Length of Visible Light 16h 22m
Length of Day
15h 07m
Tomorrow will be 2m 48s shorter.
Waxing Crescent, 17% of the Moon is Illuminated
Today
Waxing Crescent
Aug 3
First Quarter
Aug 10
Full
Aug 17
Last Quarter
Aug 25
New

Today's Extremes

State Highs State Lows

Community

WunderPhotos

Upload Photos

1,739,258 photos uploaded!

Nearby

Snow Depth

Station Depth Elevation
Crystal Lake 0 in 6050 ft
Spur Park 1 in 8100 ft
Onion Park 0 in 7410 ft
Stringer Creek 0 in 6550 ft
Porcupine 1 in 6500 ft

Earthquake Activity

City Distance Mag. Time & Date
No recent earthquake activity has been reported nearby.
Minimum magnitude displayed is 2.5.

Coastal Water Temperatures

Place Temperature
No Stations Reporting

Nearby Weather Stations

There are no personal weather stations in this area.